Página principal
METAR-TAF:

METAR-TAF

Aeroportos :

Horta, Açores, Portugal

Aeroporto da Horta

latitude: 38-31N, longitude: 028-43W, altura: 40 m

Observação actual do tempo

O boletim foi feito há 2 horas e 48 minutos, às 21:00 UTC
Vento 9 kt de nor-nordeste
Temperatura 17°C
Humidade 63%
Pressão 1032 hPa
Visibilidade 10 km ou mais
Poucas nuvensa uma altura de 2000 ft
Nuvens fragmentadasa uma altura de 4000 ft

METAR: LPHR 152100Z 02009KT 9999 FEW020 BKN040 17/10 Q1032

Hora: 22:48 (23:48 UTC)

Previsão

O boletim foi feito há 9 horas e 48 minutos, às 14:00 UTC
Previsão válida de 15 às 15 UTC a 15 às 24 UTC
Vento 5 kt com direcção variável
Visibilidade 10 km ou mais
Nuvens dispersasa uma altura de 1800 ft
Nuvens fragmentadasa uma altura de 4000 ft

TAF: LPHR 151400Z 1515/1524 VRB05KT 9999 SCT018 BKN040

Observações e previsões do tempo de mais de 4000 aeroportos (mensagens METAR e TAF).

As estações disponíveis são os pontos amarelos e vermelhos sobre o mapa.

Mova o rato sobre o mapa para ver o nome da estação.

Depois clique no ponto para visualizar as observações e previsões meteorológicas.

Para alterar o mapa : clique nos botões verdes com uma cruz preta para aumentar o zoom; no botão verde com uma pitada de zoom; ou nas setas verdes para mapas adjacentes.


METAR-TAF: